createdAt,value
2022-09-14T00:01:28.117Z,14.78
2022-09-14T00:03:57.909Z,14.77
2022-09-14T00:06:25.750Z,14.76
2022-09-14T00:08:55.036Z,14.76
2022-09-14T00:12:34.716Z,14.74
2022-09-14T00:15:02.576Z,14.68
2022-09-14T00:17:31.169Z,14.66
2022-09-14T00:19:58.515Z,14.63
2022-09-14T00:22:26.053Z,14.62
2022-09-14T00:24:53.534Z,14.58
2022-09-14T00:27:20.764Z,14.54
2022-09-14T00:29:49.154Z,14.50
2022-09-14T00:32:16.644Z,14.48
2022-09-14T00:34:43.959Z,14.44
2022-09-14T00:37:12.654Z,14.44
2022-09-14T00:39:40.014Z,14.45
2022-09-14T00:42:07.368Z,14.48
2022-09-14T00:44:34.717Z,14.50
2022-09-14T00:47:03.186Z,14.51
2022-09-14T00:49:38.935Z,14.52
2022-09-14T00:52:10.294Z,14.52
2022-09-14T00:54:41.836Z,14.54
2022-09-14T00:57:09.211Z,14.59
2022-09-14T00:59:38.812Z,14.66
2022-09-14T01:02:09.416Z,14.74
2022-09-14T01:04:37.313Z,14.85
2022-09-14T01:07:19.610Z,14.95
2022-09-14T01:10:11.352Z,15.04
2022-09-14T01:13:06.451Z,15.12
2022-09-14T01:15:42.709Z,15.18
2022-09-14T01:18:21.839Z,15.23
2022-09-14T01:21:08.051Z,15.28
2022-09-14T01:23:56.185Z,15.34
2022-09-14T01:26:56.192Z,15.38
2022-09-14T01:29:46.165Z,15.43
2022-09-14T01:32:27.614Z,15.46
2022-09-14T01:35:03.729Z,15.50
2022-09-14T01:37:51.265Z,15.56
2022-09-14T01:40:18.463Z,15.63
2022-09-14T01:42:49.950Z,15.68
2022-09-14T01:45:19.320Z,15.75
2022-09-14T01:47:49.823Z,15.80
2022-09-14T01:50:25.295Z,15.84
2022-09-14T01:52:57.734Z,15.88
2022-09-14T01:55:29.767Z,15.91
2022-09-14T01:58:12.369Z,15.93
2022-09-14T02:00:46.188Z,15.92
2022-09-14T02:03:17.807Z,15.91
2022-09-14T02:06:00.912Z,15.91
2022-09-14T02:08:30.259Z,15.91
2022-09-14T02:10:58.315Z,15.91
2022-09-14T02:13:26.196Z,15.91
2022-09-14T02:15:54.640Z,15.91
2022-09-14T02:18:22.449Z,15.92
2022-09-14T02:20:54.687Z,15.94
2022-09-14T02:23:22.489Z,15.96
2022-09-14T02:25:49.852Z,15.98
2022-09-14T02:28:18.726Z,16.00
2022-09-14T02:31:21.356Z,16.01
2022-09-14T02:34:06.289Z,16.03
2022-09-14T02:36:39.369Z,16.05
2022-09-14T02:39:28.129Z,16.05
2022-09-14T02:42:05.410Z,16.06
2022-09-14T02:45:09.953Z,16.07
2022-09-14T02:47:56.030Z,16.09
2022-09-14T02:50:36.182Z,16.09
2022-09-14T02:53:35.175Z,16.11
2022-09-14T02:56:08.135Z,16.12
2022-09-14T02:58:41.021Z,16.13
2022-09-14T03:01:11.198Z,16.13
2022-09-14T03:03:39.130Z,16.14
2022-09-14T03:06:06.783Z,16.15
2022-09-14T03:08:34.170Z,16.16
2022-09-14T03:11:02.038Z,16.16
2022-09-14T03:13:29.170Z,16.14
2022-09-14T03:15:56.683Z,16.13
2022-09-14T03:18:23.990Z,16.11
2022-09-14T03:20:51.349Z,16.08
2022-09-14T03:23:18.830Z,16.06
2022-09-14T03:25:46.050Z,16.04
2022-09-14T03:28:13.737Z,16.03
2022-09-14T03:30:42.265Z,16.02
2022-09-14T03:33:09.451Z,16.01
2022-09-14T03:35:36.690Z,16.00
2022-09-14T03:38:04.045Z,15.98
2022-09-14T03:40:31.858Z,15.96
2022-09-14T03:42:59.149Z,15.95
2022-09-14T03:45:26.530Z,15.93
2022-09-14T03:47:53.870Z,15.90
2022-09-14T03:50:21.431Z,15.88
2022-09-14T03:52:49.010Z,15.84
2022-09-14T03:55:16.670Z,15.80
2022-09-14T03:57:43.900Z,15.74
2022-09-14T04:00:12.010Z,15.66
2022-09-14T04:02:40.323Z,15.57
2022-09-14T04:05:08.126Z,15.45
2022-09-14T04:07:36.166Z,15.35
2022-09-14T04:10:03.545Z,15.27
2022-09-14T04:12:35.001Z,15.21
2022-09-14T04:15:02.771Z,15.16
2022-09-14T04:17:30.433Z,15.10
2022-09-14T04:19:57.671Z,15.05
2022-09-14T04:22:24.924Z,15.01
2022-09-14T04:24:52.610Z,14.97
2022-09-14T04:27:20.150Z,14.93
2022-09-14T04:29:50.379Z,14.87
2022-09-14T04:32:17.930Z,14.83
2022-09-14T04:34:45.289Z,14.80
2022-09-14T04:37:12.724Z,14.78
2022-09-14T04:39:39.983Z,14.77
2022-09-14T04:42:08.771Z,14.77
2022-09-14T04:44:36.155Z,14.77
2022-09-14T04:47:03.626Z,14.77
2022-09-14T04:49:31.670Z,14.75
2022-09-14T04:51:59.116Z,14.75
2022-09-14T04:54:28.223Z,14.75
2022-09-14T04:56:56.284Z,14.75
2022-09-14T04:59:23.657Z,14.76
2022-09-14T05:01:51.820Z,14.76
2022-09-14T05:04:19.489Z,14.77
2022-09-14T05:06:46.830Z,14.76
2022-09-14T05:09:16.120Z,14.74
2022-09-14T05:11:43.810Z,14.71
2022-09-14T05:14:14.716Z,14.70
2022-09-14T05:16:43.432Z,14.69
2022-09-14T05:19:14.285Z,14.69
2022-09-14T05:21:41.710Z,14.70
2022-09-14T05:24:15.120Z,14.72
2022-09-14T05:26:43.940Z,14.74
2022-09-14T05:29:17.086Z,14.77
2022-09-14T05:31:44.778Z,14.79
2022-09-14T05:34:12.796Z,14.82
2022-09-14T05:36:40.883Z,14.86
2022-09-14T05:39:08.760Z,14.90
2022-09-14T05:41:36.011Z,14.95
2022-09-14T05:44:04.141Z,15.01
2022-09-14T05:46:31.780Z,15.07
2022-09-14T05:48:59.113Z,15.12
2022-09-14T05:51:27.741Z,15.20
2022-09-14T05:53:57.380Z,15.28
2022-09-14T05:56:26.818Z,15.36
2022-09-14T05:58:54.345Z,15.44
2022-09-14T06:01:26.604Z,15.51
2022-09-14T06:03:56.066Z,15.58
2022-09-14T06:06:24.507Z,15.65
2022-09-14T06:08:56.700Z,15.72
2022-09-14T06:11:31.511Z,15.81
2022-09-14T06:13:59.370Z,15.89
2022-09-14T06:16:28.473Z,15.96
2022-09-14T06:18:57.673Z,16.03
2022-09-14T06:21:31.686Z,16.12
2022-09-14T06:23:59.119Z,16.20
2022-09-14T06:26:27.019Z,16.30
2022-09-14T06:28:54.293Z,16.39
2022-09-14T06:31:22.961Z,16.48
2022-09-14T06:33:52.030Z,16.58
2022-09-14T06:36:22.055Z,16.67
2022-09-14T06:38:50.318Z,16.78
2022-09-14T06:41:20.802Z,16.87
2022-09-14T06:43:48.611Z,16.97
2022-09-14T06:46:23.944Z,17.09
2022-09-14T06:48:56.959Z,17.19
2022-09-14T06:51:34.132Z,17.26
2022-09-14T06:54:02.213Z,17.29
2022-09-14T06:56:32.430Z,17.30
2022-09-14T06:59:00.183Z,17.32
2022-09-14T07:01:28.251Z,17.37
2022-09-14T07:03:55.710Z,17.44
2022-09-14T07:06:25.989Z,17.53
2022-09-14T07:08:53.997Z,17.62
2022-09-14T07:11:24.139Z,17.70
2022-09-14T07:13:51.490Z,17.76
2022-09-14T07:16:18.954Z,17.83
2022-09-14T07:18:46.391Z,17.88
2022-09-14T07:21:16.309Z,17.94
2022-09-14T07:23:46.160Z,18.00
2022-09-14T07:26:18.810Z,18.05
2022-09-14T07:28:49.752Z,18.10
2022-09-14T07:31:26.172Z,18.13
2022-09-14T07:33:55.709Z,18.17
2022-09-14T07:36:24.093Z,18.23
2022-09-14T07:38:53.182Z,18.28
2022-09-14T07:41:23.017Z,18.34
2022-09-14T07:43:54.966Z,18.41
2022-09-14T07:46:22.772Z,18.47
2022-09-14T07:48:55.930Z,18.50
2022-09-14T07:51:24.390Z,18.54
2022-09-14T07:53:51.937Z,18.55
2022-09-14T07:56:19.316Z,18.58
2022-09-14T07:58:46.778Z,18.61
2022-09-14T08:01:20.321Z,18.63
2022-09-14T08:03:49.265Z,18.64
2022-09-14T08:06:22.818Z,18.63
2022-09-14T08:08:51.759Z,18.67
2022-09-14T08:11:24.030Z,18.76
2022-09-14T08:13:57.898Z,18.85
2022-09-14T08:16:26.743Z,18.93
2022-09-14T08:18:59.087Z,18.97
2022-09-14T08:21:27.585Z,19.04
2022-09-14T08:23:54.935Z,19.09
2022-09-14T08:26:23.613Z,19.05
2022-09-14T08:28:52.211Z,19.05
2022-09-14T08:31:22.036Z,19.13
2022-09-14T08:33:53.478Z,19.22
2022-09-14T08:36:22.596Z,19.30
2022-09-14T08:38:49.999Z,19.33
2022-09-14T08:41:17.895Z,19.28
2022-09-14T08:43:45.430Z,19.27
2022-09-14T08:46:36.454Z,19.31
2022-09-14T08:49:19.212Z,19.36
2022-09-14T08:51:46.405Z,19.43
2022-09-14T08:54:13.571Z,19.47
2022-09-14T08:56:45.102Z,19.49
2022-09-14T08:59:41.299Z,19.56
2022-09-14T09:02:22.408Z,19.63
2022-09-14T09:04:52.648Z,19.76
2022-09-14T09:07:29.430Z,19.90
2022-09-14T09:09:57.910Z,20.04
2022-09-14T09:12:35.590Z,20.15
2022-09-14T09:15:07.654Z,20.28
2022-09-14T09:17:41.126Z,20.43
2022-09-14T09:20:28.681Z,20.58
2022-09-14T09:23:07.149Z,20.71
2022-09-14T09:25:45.410Z,20.82
2022-09-14T09:28:13.289Z,20.91
2022-09-14T09:30:41.971Z,21.02
2022-09-14T09:33:22.030Z,21.08
2022-09-14T09:35:58.581Z,21.17
2022-09-14T09:38:30.030Z,21.24
2022-09-14T09:41:00.038Z,21.33
2022-09-14T09:43:47.965Z,21.35
2022-09-14T09:46:15.302Z,21.39
2022-09-14T09:48:44.532Z,21.43
2022-09-14T09:51:15.351Z,21.50
2022-09-14T09:53:56.044Z,21.58
2022-09-14T09:56:29.470Z,21.67
2022-09-14T09:58:56.810Z,21.77
2022-09-14T10:01:42.385Z,21.83
2022-09-14T10:04:17.208Z,21.88
2022-09-14T10:06:50.110Z,21.93
2022-09-14T10:09:20.229Z,22.01
2022-09-14T10:11:49.400Z,22.07
2022-09-14T10:14:32.732Z,22.11
2022-09-14T10:17:18.983Z,22.13
2022-09-14T10:19:54.490Z,22.18
2022-09-14T10:22:33.510Z,22.23
2022-09-14T10:25:09.291Z,22.28
2022-09-14T10:27:42.927Z,22.26
2022-09-14T10:30:17.555Z,22.28
2022-09-14T10:32:54.053Z,22.27
2022-09-14T10:35:24.464Z,22.21
2022-09-14T10:38:16.352Z,22.17
2022-09-14T10:40:46.949Z,22.16
2022-09-14T10:43:18.092Z,22.19
2022-09-14T10:45:51.772Z,22.23
2022-09-14T10:48:22.250Z,22.31
2022-09-14T10:51:12.696Z,22.36
2022-09-14T10:53:50.102Z,22.39
2022-09-14T10:56:25.451Z,22.41
2022-09-14T10:59:06.112Z,22.42
2022-09-14T11:01:39.184Z,22.42
2022-09-14T11:04:46.778Z,22.43
2022-09-14T11:07:18.770Z,22.41
2022-09-14T11:09:56.151Z,22.44
2022-09-14T11:12:35.516Z,22.51
2022-09-14T11:15:38.331Z,22.58
2022-09-14T11:18:19.550Z,22.60
2022-09-14T11:21:00.933Z,22.58
2022-09-14T11:24:04.543Z,22.59
2022-09-14T11:26:44.090Z,22.58
2022-09-14T11:29:28.964Z,22.58
2022-09-14T11:32:22.686Z,22.58
2022-09-14T11:34:55.280Z,22.56
2022-09-14T11:37:37.073Z,22.52
2022-09-14T11:40:27.323Z,22.45
2022-09-14T11:43:27.312Z,22.34
2022-09-14T11:46:07.196Z,22.26
2022-09-14T11:48:43.947Z,22.20
2022-09-14T11:51:32.942Z,22.16
2022-09-14T11:54:00.350Z,22.14
2022-09-14T11:56:30.544Z,22.15
2022-09-14T11:59:00.301Z,22.20
2022-09-14T12:01:37.454Z,22.30
2022-09-14T12:04:07.734Z,22.40
2022-09-14T12:06:38.109Z,22.47
2022-09-14T12:09:15.290Z,22.52
2022-09-14T12:11:45.810Z,22.57
2022-09-14T12:14:24.940Z,22.59
2022-09-14T12:17:38.996Z,22.58
2022-09-14T12:20:29.782Z,22.59
2022-09-14T12:23:31.250Z,22.66
2022-09-14T12:25:58.711Z,22.72
2022-09-14T12:28:38.250Z,22.75
2022-09-14T12:31:09.713Z,22.80
2022-09-14T12:33:37.169Z,22.82
2022-09-14T12:36:11.398Z,22.84
2022-09-14T12:38:38.830Z,22.83
2022-09-14T12:41:09.051Z,22.84
2022-09-14T12:43:36.207Z,22.83
2022-09-14T12:46:10.627Z,22.79
2022-09-14T12:48:51.300Z,22.81
2022-09-14T12:51:31.740Z,22.80
2022-09-14T12:54:01.972Z,22.78
2022-09-14T12:56:44.172Z,22.74
2022-09-14T12:59:25.260Z,22.70
2022-09-14T13:02:05.189Z,22.69
2022-09-14T13:04:35.203Z,22.67
2022-09-14T13:07:06.320Z,22.63
2022-09-14T13:09:33.918Z,22.60
2022-09-14T13:12:04.482Z,22.57
2022-09-14T13:14:47.839Z,22.60
2022-09-14T13:17:16.569Z,22.63
2022-09-14T13:19:44.293Z,22.65
2022-09-14T13:22:22.599Z,22.65
2022-09-14T13:24:50.293Z,22.68
2022-09-14T13:27:30.107Z,22.71
2022-09-14T13:30:02.561Z,22.72
2022-09-14T13:32:29.976Z,22.73
2022-09-14T13:34:58.054Z,22.72
2022-09-14T13:37:25.810Z,22.70
2022-09-14T13:39:55.668Z,22.67
2022-09-14T13:42:23.530Z,22.63
2022-09-14T13:44:51.379Z,22.59
2022-09-14T13:47:23.539Z,22.54
2022-09-14T13:49:53.135Z,22.47
2022-09-14T13:52:25.887Z,22.39
2022-09-14T13:55:30.246Z,22.33
2022-09-14T13:58:14.075Z,22.28
2022-09-14T14:00:58.413Z,22.25
2022-09-14T14:03:40.180Z,22.27
2022-09-14T14:06:24.129Z,22.28
2022-09-14T14:09:11.566Z,22.25
2022-09-14T14:11:43.754Z,22.23
2022-09-14T14:14:16.977Z,22.19
2022-09-14T14:17:12.051Z,22.18
2022-09-14T14:19:40.900Z,22.16
2022-09-14T14:22:14.334Z,22.11
2022-09-14T14:25:02.371Z,22.06
2022-09-14T14:27:38.131Z,21.98
2022-09-14T14:30:14.810Z,21.95
2022-09-14T14:32:42.185Z,21.95
2022-09-14T14:35:18.282Z,21.96
2022-09-14T14:37:45.577Z,21.98
2022-09-14T14:40:13.566Z,21.95
2022-09-14T14:42:41.515Z,21.93
2022-09-14T14:45:26.915Z,21.92
2022-09-14T14:47:55.548Z,21.90
2022-09-14T14:50:28.136Z,21.85
2022-09-14T14:52:56.639Z,21.83
2022-09-14T14:55:26.146Z,21.81
2022-09-14T14:57:53.387Z,21.79
2022-09-14T15:00:24.441Z,21.78
2022-09-14T15:02:51.671Z,21.77
2022-09-14T15:05:19.569Z,21.75
2022-09-14T15:07:48.194Z,21.75
2022-09-14T15:10:17.003Z,21.74
2022-09-14T15:12:45.393Z,21.72
2022-09-14T15:15:18.360Z,21.67
2022-09-14T15:17:45.942Z,21.62
2022-09-14T15:20:14.237Z,21.57
2022-09-14T15:22:42.954Z,21.53
2022-09-14T15:25:11.594Z,21.46
2022-09-14T15:27:39.154Z,21.38
2022-09-14T15:30:08.069Z,21.30
2022-09-14T15:32:35.817Z,21.21
2022-09-14T15:35:03.274Z,21.12
2022-09-14T15:37:30.833Z,21.02
2022-09-14T15:39:58.201Z,20.90
2022-09-14T15:42:26.353Z,20.78
2022-09-14T15:44:53.814Z,20.64
2022-09-14T15:47:21.177Z,20.51
2022-09-14T15:49:51.690Z,20.40
2022-09-14T15:52:18.936Z,20.31
2022-09-14T15:54:46.395Z,20.22
2022-09-14T15:57:14.059Z,20.14
2022-09-14T15:59:41.428Z,20.06
2022-09-14T16:02:10.978Z,20.00
2022-09-14T16:04:39.320Z,19.94
2022-09-14T16:07:10.354Z,19.91
2022-09-14T16:09:40.650Z,19.86
2022-09-14T16:12:09.576Z,19.80
2022-09-14T16:14:37.220Z,19.74
2022-09-14T16:17:05.513Z,19.70
2022-09-14T16:19:33.250Z,19.66
2022-09-14T16:22:01.333Z,19.62
2022-09-14T16:24:29.220Z,19.58
2022-09-14T16:26:58.393Z,19.55
2022-09-14T16:29:26.661Z,19.52
2022-09-14T16:31:54.564Z,19.50
2022-09-14T16:34:24.582Z,19.47
2022-09-14T16:36:52.534Z,19.45
2022-09-14T16:39:25.722Z,19.41
2022-09-14T16:41:56.849Z,19.37
2022-09-14T16:44:26.481Z,19.34
2022-09-14T16:46:55.452Z,19.31
2022-09-14T16:49:27.289Z,19.30
2022-09-14T16:51:56.228Z,19.26
2022-09-14T16:54:25.953Z,19.24
2022-09-14T16:56:57.349Z,19.21
2022-09-14T16:59:24.840Z,19.18
2022-09-14T17:01:54.530Z,19.15
2022-09-14T17:04:23.043Z,19.12
2022-09-14T17:06:52.168Z,19.10
2022-09-14T17:09:28.383Z,19.06
2022-09-14T17:11:57.068Z,19.03
2022-09-14T17:14:32.184Z,18.99
2022-09-14T17:17:00.469Z,18.94
2022-09-14T17:19:28.654Z,18.88
2022-09-14T17:21:56.120Z,18.84
2022-09-14T17:24:24.599Z,18.82
2022-09-14T17:26:52.040Z,18.81
2022-09-14T17:29:20.020Z,18.79
2022-09-14T17:31:47.704Z,18.78
2022-09-14T17:34:16.993Z,18.75
2022-09-14T17:36:45.168Z,18.73
2022-09-14T17:39:13.644Z,18.72
2022-09-14T17:41:43.057Z,18.70
2022-09-14T17:44:13.018Z,18.67
2022-09-14T17:46:50.796Z,18.64
2022-09-14T17:49:23.824Z,18.61
2022-09-14T17:51:51.703Z,18.57
2022-09-14T17:54:20.089Z,18.53
2022-09-14T17:56:47.831Z,18.51
2022-09-14T17:59:18.164Z,18.51
2022-09-14T18:01:45.948Z,18.48
2022-09-14T18:04:15.939Z,18.47
2022-09-14T18:06:47.522Z,18.46
2022-09-14T18:09:22.376Z,18.45
2022-09-14T18:11:51.120Z,18.45
2022-09-14T18:14:19.000Z,18.42
2022-09-14T18:16:46.688Z,18.39
2022-09-14T18:19:15.205Z,18.37
2022-09-14T18:24:25.106Z,18.33
2022-09-14T18:26:52.560Z,18.32
2022-09-14T18:29:21.862Z,18.29
2022-09-14T18:31:50.857Z,18.26
2022-09-14T18:34:18.718Z,18.23
2022-09-14T18:36:46.565Z,18.18
2022-09-14T18:39:15.161Z,18.14
2022-09-14T18:41:44.503Z,18.10
2022-09-14T18:44:12.539Z,18.07
2022-09-14T18:46:40.793Z,18.05
2022-09-14T18:49:08.673Z,18.02
2022-09-14T18:51:36.677Z,18.01
2022-09-14T18:54:06.751Z,17.99
2022-09-14T18:56:35.814Z,17.97
2022-09-14T18:59:04.888Z,17.95
2022-09-14T19:01:36.080Z,17.93
2022-09-14T19:04:05.622Z,17.91
2022-09-14T19:06:35.389Z,17.89
2022-09-14T19:09:04.044Z,17.88
2022-09-14T19:11:32.670Z,17.88
2022-09-14T19:14:02.970Z,17.88
2022-09-14T19:16:31.659Z,17.88
2022-09-14T19:18:59.450Z,17.88
2022-09-14T19:21:29.539Z,17.88
2022-09-14T19:24:02.732Z,17.87
2022-09-14T19:26:33.153Z,17.87
2022-09-14T19:29:02.764Z,17.85
2022-09-14T19:31:31.768Z,17.83
2022-09-14T19:34:01.174Z,17.81
2022-09-14T19:36:29.722Z,17.78
2022-09-14T19:38:59.549Z,17.75
2022-09-14T19:41:26.840Z,17.75
2022-09-14T19:43:55.240Z,17.72
2022-09-14T19:46:26.584Z,17.70
2022-09-14T19:48:54.962Z,17.68
2022-09-14T19:51:25.983Z,17.66
2022-09-14T19:53:56.385Z,17.65
2022-09-14T19:56:29.875Z,17.65
2022-09-14T19:58:59.915Z,17.63
2022-09-14T20:01:29.415Z,17.63
2022-09-14T20:03:58.240Z,17.62
2022-09-14T20:06:30.349Z,17.61
2022-09-14T20:09:09.508Z,17.61
2022-09-14T20:11:38.718Z,17.60
2022-09-14T20:14:08.077Z,17.60
2022-09-14T20:16:41.094Z,17.58
2022-09-14T20:19:17.712Z,17.57
2022-09-14T20:21:47.214Z,17.54
2022-09-14T20:24:18.342Z,17.53
2022-09-14T20:26:50.178Z,17.52
2022-09-14T20:29:19.088Z,17.51
2022-09-14T20:31:47.383Z,17.50
2022-09-14T20:34:16.958Z,17.50
2022-09-14T20:36:44.725Z,17.51
2022-09-14T20:39:12.089Z,17.51
2022-09-14T20:41:40.149Z,17.51
2022-09-14T20:44:08.221Z,17.50
2022-09-14T20:46:39.443Z,17.49
2022-09-14T20:49:12.173Z,17.49
2022-09-14T20:51:40.641Z,17.48
2022-09-14T20:54:10.261Z,17.48
2022-09-14T20:56:38.123Z,17.47
2022-09-14T20:59:07.919Z,17.47
2022-09-14T21:01:37.234Z,17.47
2022-09-14T21:04:08.865Z,17.47
2022-09-14T21:06:38.400Z,17.47
2022-09-14T21:09:06.949Z,17.48
2022-09-14T21:11:35.139Z,17.49
2022-09-14T21:14:02.799Z,17.49
2022-09-14T21:16:32.479Z,17.49
2022-09-14T21:19:05.423Z,17.48
2022-09-14T21:21:32.924Z,17.48
2022-09-14T21:24:00.739Z,17.49
2022-09-14T21:26:29.957Z,17.50
2022-09-14T21:29:00.952Z,17.52
2022-09-14T21:31:30.312Z,17.52
2022-09-14T21:34:08.160Z,17.53
2022-09-14T21:36:38.625Z,17.54
2022-09-14T21:39:09.053Z,17.53
2022-09-14T21:41:37.366Z,17.52
2022-09-14T21:44:05.579Z,17.51
2022-09-14T21:46:33.595Z,17.50
2022-09-14T21:49:01.400Z,17.47
2022-09-14T21:51:36.605Z,17.46
2022-09-14T21:54:09.593Z,17.46
2022-09-14T21:56:39.109Z,17.46
2022-09-14T21:59:09.351Z,17.47
2022-09-14T22:01:37.185Z,17.48
2022-09-14T22:04:05.284Z,17.48
2022-09-14T22:06:33.246Z,17.46
2022-09-14T22:09:01.524Z,17.44
2022-09-14T22:11:34.217Z,17.44
2022-09-14T22:14:05.280Z,17.45
2022-09-14T22:16:34.396Z,17.45
2022-09-14T22:19:07.207Z,17.45
2022-09-14T22:21:37.701Z,17.45
2022-09-14T22:24:08.257Z,17.45
2022-09-14T22:26:36.662Z,17.44
2022-09-14T22:29:04.409Z,17.44
2022-09-14T22:31:33.071Z,17.44
2022-09-14T22:34:00.258Z,17.43
2022-09-14T22:36:28.110Z,17.45
2022-09-14T22:38:57.104Z,17.45
2022-09-14T22:41:26.521Z,17.45
2022-09-14T22:43:54.695Z,17.43
2022-09-14T22:46:23.965Z,17.43
2022-09-14T22:48:52.217Z,17.44
2022-09-14T22:51:23.528Z,17.44
2022-09-14T22:53:51.619Z,17.44
2022-09-14T22:56:24.850Z,17.46
2022-09-14T22:58:52.138Z,17.47
2022-09-14T23:01:28.465Z,17.48
2022-09-14T23:03:58.263Z,17.47
2022-09-14T23:06:35.293Z,17.45
2022-09-14T23:09:03.317Z,17.42
2022-09-14T23:11:30.834Z,17.39
2022-09-14T23:13:59.294Z,17.37
2022-09-14T23:16:29.605Z,17.35
2022-09-14T23:19:02.092Z,17.33
2022-09-14T23:21:31.493Z,17.33
2022-09-14T23:24:01.221Z,17.30
2022-09-14T23:26:28.875Z,17.28
2022-09-14T23:29:03.440Z,17.24
2022-09-14T23:31:32.521Z,17.21
2022-09-14T23:34:02.903Z,17.20
2022-09-14T23:36:30.435Z,17.19
2022-09-14T23:38:57.833Z,17.20
2022-09-14T23:41:27.337Z,17.20
2022-09-14T23:43:55.194Z,17.17
2022-09-14T23:46:22.648Z,17.16
2022-09-14T23:48:50.034Z,17.15
2022-09-14T23:51:17.407Z,17.14
2022-09-14T23:53:45.754Z,17.12
2022-09-14T23:56:13.521Z,17.11
2022-09-14T23:58:44.432Z,17.10
